createdAt,value
2022-09-18T00:00:29.797Z,45.17
2022-09-18T00:02:57.798Z,45.40
2022-09-18T00:05:25.782Z,45.30
2022-09-18T00:07:53.739Z,45.38
2022-09-18T00:10:22.712Z,45.49
2022-09-18T00:12:50.728Z,45.24
2022-09-18T00:15:18.740Z,45.29
2022-09-18T00:17:48.056Z,45.43
2022-09-18T00:20:16.186Z,45.40
2022-09-18T00:22:44.412Z,45.13
2022-09-18T00:25:12.342Z,45.26
2022-09-18T00:27:40.237Z,45.02
2022-09-18T00:30:09.565Z,45.04
2022-09-18T00:32:37.731Z,45.05
2022-09-18T00:35:08.162Z,45.08
2022-09-18T00:37:36.077Z,44.95
2022-09-18T00:40:04.485Z,45.23
2022-09-18T00:42:32.488Z,45.21
2022-09-18T00:45:00.434Z,44.81
2022-09-18T00:47:29.283Z,45.30
2022-09-18T00:50:01.271Z,44.77
2022-09-18T00:52:31.761Z,44.92
2022-09-18T00:55:02.411Z,44.99
2022-09-18T00:57:32.861Z,45.17
2022-09-18T01:00:01.632Z,45.03
2022-09-18T01:02:29.595Z,44.81
2022-09-18T01:04:57.504Z,45.02
2022-09-18T01:07:32.072Z,44.92
2022-09-18T01:10:00.601Z,45.03
2022-09-18T01:12:31.780Z,44.82
2022-09-18T01:15:04.926Z,45.20
2022-09-18T01:17:34.859Z,45.07
2022-09-18T01:20:23.058Z,44.83
2022-09-18T01:23:01.683Z,45.13
2022-09-18T01:25:32.758Z,44.85
2022-09-18T01:28:14.854Z,44.85
2022-09-18T01:30:44.258Z,44.88
2022-09-18T01:33:14.212Z,45.07
2022-09-18T01:35:44.253Z,45.07
2022-09-18T01:38:14.091Z,44.93
2022-09-18T01:40:44.364Z,44.91
2022-09-18T01:43:15.453Z,44.75
2022-09-18T01:45:44.895Z,44.79
2022-09-18T01:48:15.567Z,44.94
2022-09-18T01:50:49.790Z,45.03
2022-09-18T01:53:18.966Z,44.91
2022-09-18T01:55:48.032Z,45.08
2022-09-18T01:58:19.041Z,44.79
2022-09-18T02:00:49.164Z,44.56
2022-09-18T02:03:19.383Z,44.91
2022-09-18T02:05:48.443Z,44.96
2022-09-18T02:08:18.400Z,44.57
2022-09-18T02:10:47.747Z,44.92
2022-09-18T02:13:19.575Z,44.87
2022-09-18T02:15:47.601Z,44.51
2022-09-18T02:18:17.480Z,44.98
2022-09-18T02:20:45.647Z,44.58
2022-09-18T02:23:13.633Z,44.54
2022-09-18T02:25:44.147Z,44.81
2022-09-18T02:28:12.085Z,44.78
2022-09-18T02:30:41.499Z,44.95
2022-09-18T02:33:25.121Z,44.62
2022-09-18T02:36:07.211Z,44.90
2022-09-18T02:38:37.389Z,44.61
2022-09-18T02:41:08.723Z,44.69
2022-09-18T02:43:39.577Z,44.68
2022-09-18T02:46:12.274Z,44.60
2022-09-18T02:48:47.942Z,44.51
2022-09-18T02:51:22.822Z,44.84
2022-09-18T02:53:52.913Z,44.66
2022-09-18T02:56:23.589Z,44.81
2022-09-18T02:58:53.000Z,44.51
2022-09-18T03:01:23.014Z,44.54
2022-09-18T03:03:51.081Z,44.73
2022-09-18T03:06:19.133Z,44.46
2022-09-18T03:08:47.495Z,44.41
2022-09-18T03:11:15.383Z,44.46
2022-09-18T03:13:43.927Z,44.67
2022-09-18T03:16:11.902Z,44.45
2022-09-18T03:18:41.277Z,44.58
2022-09-18T03:21:09.196Z,44.39
2022-09-18T03:23:37.090Z,44.81
2022-09-18T03:26:05.153Z,44.83
2022-09-18T03:28:33.112Z,44.79
2022-09-18T03:31:01.616Z,44.50
2022-09-18T03:33:29.599Z,44.85
2022-09-18T03:35:58.884Z,44.52
2022-09-18T03:38:26.791Z,44.49
2022-09-18T03:40:54.701Z,44.52
2022-09-18T03:43:22.705Z,44.43
2022-09-18T03:45:50.584Z,44.72
2022-09-18T03:48:19.087Z,44.68
2022-09-18T03:50:47.592Z,44.40
2022-09-18T03:53:16.931Z,44.69
2022-09-18T03:55:44.825Z,44.80
2022-09-18T03:58:12.766Z,44.74
2022-09-18T04:00:40.859Z,44.50
2022-09-18T04:03:08.869Z,44.48
2022-09-18T04:05:36.831Z,44.33
2022-09-18T04:08:05.289Z,44.46
2022-09-18T04:10:34.871Z,44.50
2022-09-18T04:13:02.852Z,44.51
2022-09-18T04:15:30.732Z,44.20
2022-09-18T04:17:58.896Z,44.56
2022-09-18T04:20:26.881Z,44.20
2022-09-18T04:22:54.792Z,44.20
2022-09-18T04:25:22.682Z,44.23
2022-09-18T04:27:53.381Z,44.16
2022-09-18T04:30:21.296Z,44.40
2022-09-18T04:32:49.309Z,44.39
2022-09-18T04:35:18.710Z,44.49
2022-09-18T04:37:46.665Z,44.41
2022-09-18T04:40:14.618Z,44.24
2022-09-18T04:42:42.547Z,44.43
2022-09-18T04:45:12.140Z,44.09
2022-09-18T04:47:41.010Z,44.43
2022-09-18T04:50:10.987Z,44.02
2022-09-18T04:52:38.905Z,44.31
2022-09-18T04:55:07.878Z,44.16
2022-09-18T04:57:35.747Z,44.25
2022-09-18T05:00:04.093Z,44.04
2022-09-18T05:02:33.399Z,44.00
2022-09-18T05:05:01.352Z,44.20
2022-09-18T05:07:29.300Z,43.94
2022-09-18T05:09:57.232Z,44.00
2022-09-18T05:12:25.243Z,44.09
2022-09-18T05:14:53.162Z,43.61
2022-09-18T05:17:21.076Z,43.43
2022-09-18T05:19:50.375Z,43.69
2022-09-18T05:22:18.268Z,43.63
2022-09-18T05:24:46.200Z,43.09
2022-09-18T05:27:14.122Z,43.10
2022-09-18T05:29:42.044Z,43.15
2022-09-18T05:32:10.058Z,43.05
2022-09-18T05:34:38.152Z,43.19
2022-09-18T05:37:07.406Z,43.00
2022-09-18T05:39:35.292Z,43.15
2022-09-18T05:42:03.314Z,42.76
2022-09-18T05:44:31.236Z,42.89
2022-09-18T05:46:59.200Z,42.94
2022-09-18T05:49:27.167Z,43.01
2022-09-18T05:51:55.503Z,42.78
2022-09-18T05:54:24.895Z,42.91
2022-09-18T05:56:52.812Z,42.74
2022-09-18T05:59:20.746Z,42.92
2022-09-18T06:01:48.820Z,42.91
2022-09-18T06:04:16.759Z,43.01
2022-09-18T06:06:44.894Z,42.80
2022-09-18T06:09:14.705Z,42.69
2022-09-18T06:11:44.003Z,42.44
2022-09-18T06:14:11.917Z,42.46
2022-09-18T06:16:42.350Z,42.33
2022-09-18T06:19:10.584Z,42.50
2022-09-18T06:21:38.558Z,42.55
2022-09-18T06:24:06.981Z,42.32
2022-09-18T06:26:34.851Z,42.22
2022-09-18T06:29:04.796Z,42.27
2022-09-18T06:31:32.757Z,42.39
2022-09-18T06:34:00.721Z,42.19
2022-09-18T06:36:29.007Z,42.55
2022-09-18T06:38:57.020Z,42.52
2022-09-18T06:41:24.944Z,42.09
2022-09-18T06:43:52.883Z,42.50
2022-09-18T06:46:22.315Z,42.49
2022-09-18T06:48:50.265Z,42.22
2022-09-18T06:51:18.236Z,42.24
2022-09-18T06:53:46.418Z,42.18
2022-09-18T06:56:14.372Z,42.37
2022-09-18T06:58:42.239Z,42.20
2022-09-18T07:01:10.362Z,42.09
2022-09-18T07:03:39.738Z,42.05
2022-09-18T07:06:12.967Z,42.15
2022-09-18T07:08:40.926Z,42.23
2022-09-18T07:11:08.815Z,42.30
2022-09-18T07:13:37.596Z,42.35
2022-09-18T07:16:06.005Z,42.20
2022-09-18T07:18:34.064Z,41.92
2022-09-18T07:21:03.343Z,41.95
2022-09-18T07:23:33.107Z,42.01
2022-09-18T07:26:01.122Z,42.22
2022-09-18T07:28:29.071Z,42.22
2022-09-18T07:30:57.067Z,41.77
2022-09-18T07:33:25.111Z,42.05
2022-09-18T07:35:53.220Z,41.86
2022-09-18T07:38:22.512Z,41.75
2022-09-18T07:40:50.422Z,41.90
2022-09-18T07:43:18.376Z,41.64
2022-09-18T07:45:46.358Z,41.82
2022-09-18T07:48:14.329Z,41.70
2022-09-18T07:50:42.783Z,41.56
2022-09-18T07:53:11.084Z,41.60
2022-09-18T07:55:42.569Z,41.51
2022-09-18T07:58:10.762Z,41.58
2022-09-18T08:00:38.987Z,41.53
2022-09-18T08:03:07.956Z,41.67
2022-09-18T08:05:35.987Z,41.38
2022-09-18T08:08:05.198Z,41.54
2022-09-18T08:10:33.376Z,41.21
2022-09-18T08:13:03.745Z,41.28
2022-09-18T08:15:31.788Z,41.39
2022-09-18T08:17:59.847Z,41.50
2022-09-18T08:20:27.901Z,41.41
2022-09-18T08:22:55.884Z,41.59
2022-09-18T08:25:23.830Z,41.52
2022-09-18T08:27:52.070Z,41.51
2022-09-18T08:30:21.642Z,41.31
2022-09-18T08:32:49.704Z,41.47
2022-09-18T08:35:17.882Z,41.20
2022-09-18T08:37:48.817Z,41.15
2022-09-18T08:40:17.752Z,41.19
2022-09-18T08:42:48.800Z,41.10
2022-09-18T08:45:30.371Z,41.48
2022-09-18T08:47:59.403Z,41.27
2022-09-18T08:50:28.299Z,41.46
2022-09-18T08:52:58.417Z,41.14
2022-09-18T08:55:27.872Z,41.37
2022-09-18T08:57:56.711Z,41.48
2022-09-18T09:00:27.804Z,41.20
2022-09-18T09:02:56.697Z,41.00
2022-09-18T09:05:37.160Z,41.28
2022-09-18T09:08:13.736Z,41.34
2022-09-18T09:10:44.156Z,41.19
2022-09-18T09:13:39.240Z,40.75
2022-09-18T09:16:11.938Z,41.13
2022-09-18T09:18:42.347Z,41.18
2022-09-18T09:21:15.037Z,40.86
2022-09-18T09:23:49.104Z,41.02
2022-09-18T09:26:18.618Z,41.05
2022-09-18T09:28:51.470Z,40.59
2022-09-18T09:31:22.197Z,40.64
2022-09-18T09:33:53.571Z,40.78
2022-09-18T09:36:23.224Z,40.83
2022-09-18T09:38:53.143Z,40.62
2022-09-18T09:41:25.747Z,40.69
2022-09-18T09:43:58.680Z,40.69
2022-09-18T09:46:52.270Z,40.65
2022-09-18T09:49:22.631Z,40.53
2022-09-18T09:51:54.117Z,40.52
2022-09-18T09:54:21.988Z,40.60
2022-09-18T09:56:52.811Z,40.67
2022-09-18T09:59:24.576Z,40.50
2022-09-18T10:01:57.950Z,40.86
2022-09-18T10:04:32.996Z,40.56
2022-09-18T10:07:03.647Z,40.59
2022-09-18T10:09:37.232Z,40.37
2022-09-18T10:12:06.398Z,40.38
2022-09-18T10:14:34.660Z,40.45
2022-09-18T10:17:04.482Z,40.33
2022-09-18T10:19:36.213Z,40.34
2022-09-18T10:22:05.228Z,40.41
2022-09-18T10:24:39.950Z,40.21
2022-09-18T10:27:09.479Z,40.26
2022-09-18T10:29:37.407Z,40.37
2022-09-18T10:32:07.130Z,40.40
2022-09-18T10:34:39.951Z,39.96
2022-09-18T10:37:10.678Z,40.11
2022-09-18T10:39:38.908Z,40.15
2022-09-18T10:42:07.251Z,40.37
2022-09-18T10:44:35.864Z,39.92
2022-09-18T10:47:07.271Z,40.36
2022-09-18T10:49:36.719Z,39.97
2022-09-18T10:52:32.942Z,39.73
2022-09-18T10:55:12.527Z,39.73
2022-09-18T10:57:41.397Z,39.72
2022-09-18T11:00:34.916Z,39.73
2022-09-18T11:03:12.270Z,39.92
2022-09-18T11:05:40.546Z,39.85
2022-09-18T11:08:18.790Z,39.58
2022-09-18T11:10:48.880Z,39.89
2022-09-18T11:13:22.244Z,39.26
2022-09-18T11:15:53.033Z,39.69
2022-09-18T11:18:23.550Z,39.36
2022-09-18T11:20:52.113Z,39.64
2022-09-18T11:23:26.656Z,39.52
2022-09-18T11:26:10.906Z,39.43
2022-09-18T11:28:39.757Z,39.26
2022-09-18T11:31:11.185Z,39.42
2022-09-18T11:33:43.201Z,39.39
2022-09-18T11:36:12.347Z,39.29
2022-09-18T11:38:41.277Z,39.32
2022-09-18T11:41:09.210Z,39.04
2022-09-18T11:43:38.203Z,39.08
2022-09-18T11:46:10.477Z,39.13
2022-09-18T11:48:42.082Z,39.14
2022-09-18T11:51:12.381Z,39.59
2022-09-18T11:53:43.022Z,39.15
2022-09-18T11:56:14.261Z,39.21
2022-09-18T11:58:43.868Z,39.13
2022-09-18T12:01:15.858Z,39.41
2022-09-18T12:03:47.442Z,39.17
2022-09-18T12:06:20.983Z,39.32
2022-09-18T12:08:50.471Z,39.19
2022-09-18T12:11:21.971Z,39.14
2022-09-18T12:14:03.270Z,38.93
2022-09-18T12:16:39.480Z,38.96
2022-09-18T12:19:12.464Z,39.24
2022-09-18T12:21:43.242Z,38.94
2022-09-18T12:24:13.422Z,38.76
2022-09-18T12:26:50.793Z,38.88
2022-09-18T12:29:29.272Z,38.85
2022-09-18T12:32:01.676Z,38.76
2022-09-18T12:34:34.820Z,38.81
2022-09-18T12:37:12.526Z,38.44
2022-09-18T12:39:54.877Z,38.58
2022-09-18T12:42:28.625Z,38.63
2022-09-18T12:45:13.640Z,38.29
2022-09-18T12:47:45.573Z,38.45
2022-09-18T12:50:23.631Z,38.48
2022-09-18T12:53:09.000Z,38.65
2022-09-18T12:55:44.871Z,38.38
2022-09-18T12:58:21.629Z,38.49
2022-09-18T13:00:50.285Z,38.27
2022-09-18T13:03:19.923Z,38.51
2022-09-18T13:05:51.402Z,38.57
2022-09-18T13:08:21.383Z,38.53
2022-09-18T13:10:50.006Z,38.41
2022-09-18T13:13:19.922Z,38.23
2022-09-18T13:15:49.607Z,38.56
2022-09-18T13:18:23.518Z,38.14
2022-09-18T13:20:52.841Z,38.06
2022-09-18T13:23:22.004Z,38.52
2022-09-18T13:25:52.305Z,38.30
2022-09-18T13:28:20.896Z,38.56
2022-09-18T13:30:49.271Z,38.12
2022-09-18T13:33:27.621Z,38.22
2022-09-18T13:35:57.762Z,38.25
2022-09-18T13:38:26.272Z,38.16
2022-09-18T13:40:59.675Z,38.18
2022-09-18T13:43:40.435Z,37.76
2022-09-18T13:46:08.407Z,38.16
2022-09-18T13:48:37.442Z,37.93
2022-09-18T13:51:08.285Z,37.72
2022-09-18T13:53:42.838Z,37.57
2022-09-18T13:56:11.211Z,38.07
2022-09-18T13:58:52.305Z,37.79
2022-09-18T14:01:59.841Z,37.34
2022-09-18T14:05:11.347Z,37.63
2022-09-18T14:08:10.616Z,37.26
2022-09-18T14:11:14.647Z,37.66
2022-09-18T14:13:46.320Z,37.86
2022-09-18T14:16:31.590Z,37.46
2022-09-18T14:19:04.168Z,37.56
2022-09-18T14:21:33.008Z,37.75
2022-09-18T14:24:16.841Z,37.54
2022-09-18T14:27:26.377Z,37.16
2022-09-18T14:29:58.188Z,37.39
2022-09-18T14:32:26.941Z,37.18
2022-09-18T14:35:14.015Z,37.27
2022-09-18T14:37:41.963Z,37.03
2022-09-18T14:40:20.541Z,37.04
2022-09-18T14:42:48.693Z,37.27
2022-09-18T14:45:22.220Z,37.36
2022-09-18T14:47:50.746Z,37.03
2022-09-18T14:50:26.448Z,37.25
2022-09-18T14:52:54.440Z,37.15
2022-09-18T14:55:24.674Z,37.46
2022-09-18T14:57:54.949Z,37.34
2022-09-18T15:00:30.661Z,37.36
2022-09-18T15:02:59.993Z,37.28
2022-09-18T15:05:28.521Z,37.08
2022-09-18T15:07:58.729Z,37.28
2022-09-18T15:10:28.212Z,37.65
2022-09-18T15:12:56.892Z,37.54
2022-09-18T15:15:27.592Z,37.24
2022-09-18T15:17:55.810Z,37.45
2022-09-18T15:20:23.936Z,37.21
2022-09-18T15:22:53.381Z,37.84
2022-09-18T15:25:23.811Z,38.03
2022-09-18T15:27:53.117Z,37.69
2022-09-18T15:30:22.406Z,37.84
2022-09-18T15:32:52.128Z,37.25
2022-09-18T15:35:21.052Z,37.21
2022-09-18T15:37:54.018Z,36.68
2022-09-18T15:40:31.628Z,36.89
2022-09-18T15:43:02.276Z,36.93
2022-09-18T15:45:30.841Z,36.44
2022-09-18T15:48:00.642Z,36.65
2022-09-18T15:50:37.436Z,36.50
2022-09-18T15:53:30.696Z,36.83
2022-09-18T15:56:03.959Z,36.37
2022-09-18T15:58:46.859Z,36.18
2022-09-18T16:01:37.535Z,36.33
2022-09-18T16:04:16.163Z,36.62
2022-09-18T16:06:54.534Z,36.75
2022-09-18T16:09:30.715Z,36.49
2022-09-18T16:12:01.429Z,36.84
2022-09-18T16:14:44.806Z,36.68
2022-09-18T16:17:41.469Z,37.08
2022-09-18T16:20:26.606Z,37.35
2022-09-18T16:22:55.752Z,37.35
2022-09-18T16:25:26.445Z,37.28
2022-09-18T16:27:56.012Z,37.30
2022-09-18T16:30:25.392Z,37.44
2022-09-18T16:32:57.180Z,37.49
2022-09-18T16:35:25.101Z,37.69
2022-09-18T16:37:55.198Z,37.86
2022-09-18T16:40:27.493Z,37.73
2022-09-18T16:42:58.558Z,37.43
2022-09-18T16:45:28.100Z,37.60
2022-09-18T16:47:59.949Z,37.84
2022-09-18T16:50:29.530Z,37.48
2022-09-18T16:53:01.152Z,37.63
2022-09-18T16:55:29.454Z,37.47
2022-09-18T16:57:58.148Z,37.75
2022-09-18T17:00:27.474Z,37.94
2022-09-18T17:02:57.884Z,38.02
2022-09-18T17:05:26.099Z,37.98
2022-09-18T17:07:54.005Z,37.75
2022-09-18T17:10:21.889Z,38.16
2022-09-18T17:12:49.790Z,37.99
2022-09-18T17:15:17.759Z,38.15
2022-09-18T17:17:47.056Z,38.16
2022-09-18T17:20:17.865Z,38.08
2022-09-18T17:22:45.882Z,37.87
2022-09-18T17:25:13.994Z,38.31
2022-09-18T17:27:43.830Z,37.99
2022-09-18T17:30:12.811Z,38.30
2022-09-18T17:32:40.784Z,38.04
2022-09-18T17:35:10.367Z,37.95
2022-09-18T17:37:38.316Z,38.03
2022-09-18T17:40:07.260Z,37.94
2022-09-18T17:42:35.263Z,38.43
2022-09-18T17:45:03.463Z,37.96
2022-09-18T17:47:31.449Z,38.22
2022-09-18T17:49:59.540Z,38.00
2022-09-18T17:52:29.164Z,38.06
2022-09-18T17:54:57.520Z,38.12
2022-09-18T17:57:25.757Z,37.94
2022-09-18T17:59:53.994Z,38.44
2022-09-18T18:02:22.507Z,38.50
2022-09-18T18:04:50.592Z,38.44
2022-09-18T18:07:18.562Z,38.40
2022-09-18T18:09:47.910Z,38.61
2022-09-18T18:12:15.865Z,38.41
2022-09-18T18:14:43.829Z,39.15
2022-09-18T18:17:12.955Z,39.23
2022-09-18T18:19:40.899Z,39.25
2022-09-18T18:22:09.091Z,39.51
2022-09-18T18:24:37.047Z,39.76
2022-09-18T18:27:06.657Z,39.68
2022-09-18T18:29:35.514Z,39.97
2022-09-18T18:32:03.983Z,39.68
2022-09-18T18:34:32.806Z,40.07
2022-09-18T18:37:01.775Z,39.94
2022-09-18T18:39:29.727Z,40.26
2022-09-18T18:41:57.739Z,40.01
2022-09-18T18:44:27.358Z,40.37
2022-09-18T18:46:55.502Z,40.28
2022-09-18T18:49:24.172Z,40.53
2022-09-18T18:51:52.463Z,40.53
2022-09-18T18:54:22.373Z,40.43
2022-09-18T18:56:50.521Z,40.62
2022-09-18T18:59:19.325Z,40.56
2022-09-18T19:01:48.903Z,40.23
2022-09-18T19:04:19.193Z,40.56
2022-09-18T19:06:50.018Z,40.52
2022-09-18T19:09:20.484Z,40.33
2022-09-18T19:11:49.435Z,40.48
2022-09-18T19:14:18.508Z,40.61
2022-09-18T19:16:49.943Z,40.28
2022-09-18T19:19:18.813Z,40.62
2022-09-18T19:21:46.855Z,40.53
2022-09-18T19:24:14.960Z,40.66
2022-09-18T19:26:46.140Z,40.13
2022-09-18T19:29:15.725Z,40.14
2022-09-18T19:31:44.973Z,40.49
2022-09-18T19:34:15.831Z,40.18
2022-09-18T19:36:51.320Z,40.24
2022-09-18T19:39:19.869Z,40.47
2022-09-18T19:41:49.874Z,40.41
2022-09-18T19:44:20.633Z,40.08
2022-09-18T19:46:49.057Z,40.13
2022-09-18T19:49:19.872Z,39.90
2022-09-18T19:51:49.285Z,39.97
2022-09-18T19:54:19.080Z,39.94
2022-09-18T19:56:47.768Z,39.82
2022-09-18T19:59:15.816Z,39.93
2022-09-18T20:01:44.181Z,39.81
2022-09-18T20:04:12.232Z,39.92
2022-09-18T20:06:42.448Z,40.22
2022-09-18T20:09:10.667Z,40.22
2022-09-18T20:11:38.775Z,40.34
2022-09-18T20:14:06.832Z,40.25
2022-09-18T20:16:34.961Z,39.96
2022-09-18T20:19:03.354Z,40.17
2022-09-18T20:21:31.411Z,40.50
2022-09-18T20:24:01.974Z,40.08
2022-09-18T20:26:32.503Z,40.26
2022-09-18T20:29:00.540Z,39.90
2022-09-18T20:31:28.482Z,40.21
2022-09-18T20:33:56.894Z,40.36
2022-09-18T20:36:25.721Z,40.13
2022-09-18T20:38:58.104Z,40.32
2022-09-18T20:41:28.145Z,40.18
2022-09-18T20:43:56.155Z,40.11
2022-09-18T20:46:24.346Z,40.50
2022-09-18T20:48:55.196Z,40.73
2022-09-18T20:51:24.535Z,40.42
2022-09-18T20:53:59.139Z,40.53
2022-09-18T20:56:29.593Z,40.30
2022-09-18T20:58:57.734Z,40.52
2022-09-18T21:01:29.638Z,40.25
2022-09-18T21:03:59.758Z,40.31
2022-09-18T21:06:31.654Z,40.32
2022-09-18T21:08:59.796Z,40.45
2022-09-18T21:11:29.736Z,40.30
2022-09-18T21:13:59.705Z,40.49
2022-09-18T21:16:28.465Z,40.54
2022-09-18T21:19:02.182Z,41.05
2022-09-18T21:21:31.627Z,40.85
2022-09-18T21:24:01.512Z,40.67
2022-09-18T21:26:33.743Z,40.32
2022-09-18T21:29:05.974Z,40.11
2022-09-18T21:31:38.592Z,40.06
2022-09-18T21:34:07.855Z,40.46
2022-09-18T21:36:38.755Z,40.52
2022-09-18T21:39:07.479Z,40.53
2022-09-18T21:41:39.578Z,40.49
2022-09-18T21:44:09.002Z,40.56
2022-09-18T21:46:45.941Z,40.52
2022-09-18T21:49:18.714Z,40.57
2022-09-18T21:51:49.873Z,40.10
2022-09-18T21:54:20.499Z,40.15
2022-09-18T21:56:51.333Z,40.44
2022-09-18T21:59:19.348Z,40.37
2022-09-18T22:01:48.969Z,40.26
2022-09-18T22:04:17.429Z,40.09
2022-09-18T22:06:46.021Z,39.87
2022-09-18T22:09:15.018Z,39.95
2022-09-18T22:11:43.465Z,40.06
2022-09-18T22:14:14.087Z,40.09
2022-09-18T22:16:43.095Z,40.21
2022-09-18T22:19:11.037Z,39.88
2022-09-18T22:21:40.070Z,39.78
2022-09-18T22:24:09.330Z,39.64
2022-09-18T22:26:39.497Z,40.09
2022-09-18T22:29:08.419Z,40.14
2022-09-18T22:31:38.469Z,39.58
2022-09-18T22:34:08.702Z,39.80
2022-09-18T22:36:37.690Z,39.48
2022-09-18T22:39:09.251Z,39.63
2022-09-18T22:41:38.743Z,39.95
2022-09-18T22:44:07.846Z,39.58
2022-09-18T22:46:44.840Z,39.81
2022-09-18T22:49:14.099Z,39.96
2022-09-18T22:51:43.866Z,39.58
2022-09-18T22:54:13.058Z,39.89
2022-09-18T22:56:44.897Z,39.78
2022-09-18T22:59:14.235Z,39.91
2022-09-18T23:01:47.293Z,39.76
2022-09-18T23:04:19.166Z,39.80
2022-09-18T23:06:51.283Z,39.53
2022-09-18T23:09:20.534Z,39.83
2022-09-18T23:11:50.646Z,39.88
2022-09-18T23:14:20.750Z,39.82
2022-09-18T23:16:52.815Z,39.76
2022-09-18T23:19:23.336Z,39.79
2022-09-18T23:21:52.325Z,39.66
2022-09-18T23:24:22.157Z,39.61
2022-09-18T23:26:52.221Z,39.62
2022-09-18T23:29:22.391Z,39.80
2022-09-18T23:31:53.993Z,39.62
2022-09-18T23:34:24.674Z,39.78
2022-09-18T23:36:54.710Z,39.74
2022-09-18T23:39:25.219Z,39.75
2022-09-18T23:41:54.300Z,39.52
2022-09-18T23:44:23.735Z,39.35
2022-09-18T23:46:54.524Z,39.49
2022-09-18T23:49:23.945Z,39.51
2022-09-18T23:51:54.180Z,39.41
2022-09-18T23:54:24.097Z,39.21
2022-09-18T23:56:53.700Z,39.70
2022-09-18T23:59:26.364Z,39.21
